createdAt,value
2022-12-18T00:01:52.534Z,102564.20
2022-12-18T00:04:26.920Z,102559.46
2022-12-18T00:06:54.846Z,102567.83
2022-12-18T00:09:22.702Z,102571.72
2022-12-18T00:11:52.585Z,102575.61
2022-12-18T00:14:20.435Z,102587.45
2022-12-18T00:16:48.820Z,102585.95
2022-12-18T00:19:16.694Z,102583.33
2022-12-18T00:21:44.974Z,102579.24
2022-12-18T00:24:13.071Z,102576.66
2022-12-18T00:26:40.990Z,102584.44
2022-12-18T00:29:17.771Z,102585.95
2022-12-18T00:31:45.826Z,102579.01
2022-12-18T00:34:14.123Z,102576.43
2022-12-18T00:36:43.261Z,102592.77
2022-12-18T00:39:12.042Z,102596.44
2022-12-18T00:41:58.239Z,102606.12
2022-12-18T00:44:26.070Z,102602.29
2022-12-18T00:46:53.851Z,102601.41
2022-12-18T00:49:21.902Z,102602.88
2022-12-18T00:51:49.815Z,102605.27
2022-12-18T00:54:18.021Z,102605.04
2022-12-18T00:56:49.218Z,102598.59
2022-12-18T00:59:18.113Z,102594.70
2022-12-18T01:01:46.972Z,102588.00
2022-12-18T01:04:15.246Z,102600.95
2022-12-18T01:06:43.012Z,102602.65
2022-12-18T01:09:10.849Z,102602.00
2022-12-18T01:11:38.663Z,102616.65
2022-12-18T01:14:06.540Z,102627.86
2022-12-18T01:16:34.470Z,102638.65
2022-12-18T01:19:02.414Z,102627.44
2022-12-18T01:21:30.247Z,102626.16
2022-12-18T01:23:59.050Z,102630.45
2022-12-18T01:26:27.405Z,102633.48
2022-12-18T01:28:56.652Z,102627.66
2022-12-18T01:31:32.140Z,102631.55
2022-12-18T01:34:00.254Z,102634.98
2022-12-18T01:36:29.774Z,102642.51
2022-12-18T01:38:57.918Z,102637.77
2022-12-18T01:41:28.064Z,102639.27
2022-12-18T01:43:59.542Z,102642.09
2022-12-18T01:46:28.110Z,102638.03
2022-12-18T01:49:00.046Z,102646.17
2022-12-18T01:51:28.147Z,102640.38
2022-12-18T01:53:55.963Z,102640.38
2022-12-18T01:56:23.819Z,102638.23
2022-12-18T01:59:06.056Z,102635.64
2022-12-18T02:01:34.025Z,102645.55
2022-12-18T02:04:22.340Z,102645.09
2022-12-18T02:06:52.048Z,102646.37
2022-12-18T02:09:26.462Z,102649.80
2022-12-18T02:12:03.797Z,102647.02
2022-12-18T02:14:41.286Z,102642.25
2022-12-18T02:17:15.452Z,102646.34
2022-12-18T02:20:01.451Z,102642.48
2022-12-18T02:22:37.930Z,102638.35
2022-12-18T02:25:22.990Z,102638.62
2022-12-18T02:27:51.187Z,102635.80
2022-12-18T02:30:19.135Z,102640.74
2022-12-18T02:32:51.042Z,102631.49
2022-12-18T02:35:24.221Z,102640.52
2022-12-18T02:37:52.203Z,102639.86
2022-12-18T02:40:20.139Z,102645.88
2022-12-18T02:42:47.980Z,102636.20
2022-12-18T02:45:15.917Z,102640.09
2022-12-18T02:47:45.857Z,102645.88
2022-12-18T02:50:32.348Z,102646.98
2022-12-18T02:53:06.551Z,102638.81
2022-12-18T02:56:11.373Z,102655.62
2022-12-18T02:59:24.305Z,102650.45
2022-12-18T03:02:01.554Z,102654.15
2022-12-18T03:04:32.958Z,102656.93
2022-12-18T03:07:04.227Z,102661.63
2022-12-18T03:09:34.523Z,102664.25
2022-12-18T03:12:26.526Z,102667.45
2022-12-18T03:15:00.253Z,102657.98
2022-12-18T03:17:29.119Z,102667.88
2022-12-18T03:19:58.226Z,102663.56
2022-12-18T03:22:26.258Z,102654.97
2022-12-18T03:24:53.979Z,102648.91
2022-12-18T03:27:22.208Z,102658.17
2022-12-18T03:29:51.881Z,102658.40
2022-12-18T03:32:26.497Z,102669.81
2022-12-18T03:34:54.243Z,102654.31
2022-12-18T03:37:21.982Z,102647.64
2022-12-18T03:39:49.809Z,102658.89
2022-12-18T03:42:23.285Z,102647.51
2022-12-18T03:44:53.812Z,102656.77
2022-12-18T03:47:53.516Z,102658.07
2022-12-18T03:50:37.243Z,102658.27
2022-12-18T03:53:26.890Z,102667.98
2022-12-18T03:55:55.118Z,102670.98
2022-12-18T03:58:25.423Z,102680.04
2022-12-18T04:00:53.902Z,102684.13
2022-12-18T04:03:26.181Z,102669.05
2022-12-18T04:05:55.064Z,102678.31
2022-12-18T04:08:23.540Z,102693.38
2022-12-18T04:10:51.275Z,102681.35
2022-12-18T04:13:45.486Z,102677.03
2022-12-18T04:16:13.367Z,102694.89
2022-12-18T04:18:41.151Z,102701.55
2022-12-18T04:21:08.934Z,102699.82
2022-12-18T04:23:36.922Z,102708.88
2022-12-18T04:26:04.924Z,102705.22
2022-12-18T04:28:32.808Z,102703.29
2022-12-18T04:31:00.698Z,102697.50
2022-12-18T04:33:28.615Z,102693.41
2022-12-18T04:35:56.360Z,102694.04
2022-12-18T04:38:24.208Z,102700.28
2022-12-18T04:40:52.158Z,102703.06
2022-12-18T04:43:20.089Z,102717.91
2022-12-18T04:45:47.961Z,102716.40
2022-12-18T04:48:15.732Z,102708.45
2022-12-18T04:50:43.597Z,102704.96
2022-12-18T04:53:11.385Z,102706.73
2022-12-18T04:55:39.228Z,102704.34
2022-12-18T04:58:12.130Z,102700.25
2022-12-18T05:00:39.913Z,102703.03
2022-12-18T05:03:07.711Z,102706.46
2022-12-18T05:05:37.149Z,102716.17
2022-12-18T05:08:05.033Z,102717.45
2022-12-18T05:10:37.943Z,102720.00
2022-12-18T05:13:06.176Z,102717.84
2022-12-18T05:15:35.062Z,102710.74
2022-12-18T05:18:03.169Z,102722.58
2022-12-18T05:20:31.198Z,102719.57
2022-12-18T05:22:59.079Z,102720.00
2022-12-18T05:25:27.287Z,102707.93
2022-12-18T05:27:55.165Z,102711.37
2022-12-18T05:30:22.968Z,102722.35
2022-12-18T05:32:50.783Z,102720.00
2022-12-18T05:35:18.575Z,102729.88
2022-12-18T05:37:46.427Z,102727.09
2022-12-18T05:40:14.561Z,102733.77
2022-12-18T05:42:42.324Z,102733.77
2022-12-18T05:45:10.460Z,102739.16
2022-12-18T05:47:38.264Z,102746.02
2022-12-18T05:50:06.626Z,102736.77
2022-12-18T05:52:34.394Z,102744.52
2022-12-18T05:55:02.337Z,102744.29
2022-12-18T05:57:30.130Z,102738.90
2022-12-18T05:59:57.994Z,102740.43
2022-12-18T06:02:25.838Z,102743.90
2022-12-18T06:04:53.708Z,102744.95
2022-12-18T06:07:21.432Z,102727.71
2022-12-18T06:09:49.233Z,102729.02
2022-12-18T06:12:17.147Z,102726.63
2022-12-18T06:14:44.972Z,102730.92
2022-12-18T06:17:12.850Z,102733.53
2022-12-18T06:19:40.697Z,102725.33
2022-12-18T06:22:08.468Z,102732.42
2022-12-18T06:24:36.294Z,102737.59
2022-12-18T06:27:04.795Z,102738.24
2022-12-18T06:29:32.518Z,102739.78
2022-12-18T06:32:00.508Z,102744.03
2022-12-18T06:34:28.405Z,102745.99
2022-12-18T06:36:56.152Z,102746.02
2022-12-18T06:39:23.962Z,102746.68
2022-12-18T06:41:51.802Z,102751.65
2022-12-18T06:44:19.630Z,102764.14
2022-12-18T06:46:47.463Z,102760.28
2022-12-18T06:49:15.364Z,102758.32
2022-12-18T06:51:43.298Z,102766.72
2022-12-18T06:54:11.047Z,102769.96
2022-12-18T06:56:38.858Z,102764.76
2022-12-18T06:59:06.701Z,102774.44
2022-12-18T07:01:34.607Z,102778.75
2022-12-18T07:04:02.974Z,102785.20
2022-12-18T07:06:30.828Z,102784.77
2022-12-18T07:08:58.883Z,102786.96
2022-12-18T07:11:26.838Z,102780.03
2022-12-18T07:13:54.864Z,102792.09
2022-12-18T07:16:25.542Z,102793.83
2022-12-18T07:18:54.670Z,102799.84
2022-12-18T07:21:23.020Z,102802.20
2022-12-18T07:23:50.965Z,102806.71
2022-12-18T07:26:20.962Z,102802.00
2022-12-18T07:28:48.841Z,102817.92
2022-12-18T07:31:20.179Z,102816.62
2022-12-18T07:33:49.679Z,102808.87
2022-12-18T07:36:17.676Z,102816.84
2022-12-18T07:38:45.517Z,102821.59
2022-12-18T07:41:14.371Z,102819.85
2022-12-18T07:43:43.153Z,102835.58
2022-12-18T07:46:11.813Z,102831.49
2022-12-18T07:48:41.727Z,102834.08
2022-12-18T07:51:09.690Z,102831.27
2022-12-18T07:53:37.918Z,102827.38
2022-12-18T07:58:55.960Z,102825.45
2022-12-18T08:01:23.877Z,102826.33
2022-12-18T08:03:52.519Z,102823.71
2022-12-18T08:06:23.334Z,102832.54
2022-12-18T08:08:54.032Z,102828.26
2022-12-18T08:11:22.132Z,102828.48
2022-12-18T08:13:50.087Z,102837.54
2022-12-18T08:16:18.138Z,102839.24
2022-12-18T08:18:46.143Z,102840.94
2022-12-18T08:21:15.819Z,102843.13
2022-12-18T08:23:43.945Z,102845.68
2022-12-18T08:26:13.245Z,102840.09
2022-12-18T08:28:41.291Z,102844.18
2022-12-18T08:31:09.632Z,102845.91
2022-12-18T08:33:38.291Z,102845.91
2022-12-18T08:36:07.067Z,102842.45
2022-12-18T08:38:35.236Z,102842.67
2022-12-18T08:41:07.318Z,102846.53
2022-12-18T08:43:53.701Z,102841.82
2022-12-18T08:46:22.020Z,102840.48
2022-12-18T08:48:50.594Z,102839.70
2022-12-18T08:51:19.191Z,102842.94
2022-12-18T08:53:47.065Z,102849.61
2022-12-18T08:56:15.392Z,102860.20
2022-12-18T08:58:43.774Z,102861.24
2022-12-18T09:01:12.510Z,102846.56
2022-12-18T09:03:41.159Z,102852.35
2022-12-18T09:06:09.477Z,102843.63
2022-12-18T09:08:38.863Z,102850.16
2022-12-18T09:11:07.095Z,102847.61
2022-12-18T09:13:34.917Z,102854.51
2022-12-18T09:16:02.743Z,102848.46
2022-12-18T09:18:30.691Z,102837.48
2022-12-18T09:20:58.681Z,102830.61
2022-12-18T09:23:26.514Z,102843.10
2022-12-18T09:25:54.394Z,102830.19
2022-12-18T09:28:22.423Z,102835.35
2022-12-18T09:30:50.967Z,102834.24
2022-12-18T09:33:19.213Z,102824.13
2022-12-18T09:35:47.443Z,102830.34
2022-12-18T09:38:20.245Z,102833.59
2022-12-18T09:40:54.880Z,102826.30
2022-12-18T09:43:25.968Z,102840.52
2022-12-18T09:45:59.342Z,102845.06
2022-12-18T09:48:34.966Z,102837.51
2022-12-18T09:51:23.788Z,102846.14
2022-12-18T09:53:57.802Z,102840.35
2022-12-18T09:56:27.129Z,102833.20
2022-12-18T09:59:02.760Z,102825.02
2022-12-18T10:01:43.236Z,102833.59
2022-12-18T10:04:12.174Z,102836.63
2022-12-18T10:06:55.159Z,102834.89
2022-12-18T10:09:26.137Z,102841.82
2022-12-18T10:12:16.046Z,102829.30
2022-12-18T10:14:45.850Z,102839.17
2022-12-18T10:18:01.765Z,102837.70
2022-12-18T10:20:40.088Z,102845.65
2022-12-18T10:23:29.756Z,102843.55
2022-12-18T10:26:06.062Z,102850.85
2022-12-18T10:28:35.804Z,102846.11
2022-12-18T10:31:03.711Z,102843.30
2022-12-18T10:33:32.697Z,102852.12
2022-12-18T10:36:00.673Z,102838.98
2022-12-18T10:38:32.829Z,102838.75
2022-12-18T10:41:08.671Z,102843.88
2022-12-18T10:43:37.989Z,102839.38
2022-12-18T10:46:11.949Z,102844.77
2022-12-18T10:48:50.560Z,102847.16
2022-12-18T10:51:35.774Z,102851.73
2022-12-18T10:54:06.697Z,102853.70
2022-12-18T10:56:36.625Z,102856.70
2022-12-18T10:59:08.047Z,102859.74
2022-12-18T11:01:50.399Z,102851.11
2022-12-18T11:04:32.373Z,102847.48
2022-12-18T11:07:05.925Z,102834.27
2022-12-18T11:09:43.050Z,102834.92
2022-12-18T11:12:19.356Z,102844.60
2022-12-18T11:14:51.793Z,102850.81
2022-12-18T11:17:36.900Z,102842.67
2022-12-18T11:20:28.834Z,102839.66
2022-12-18T11:23:04.015Z,102851.96
2022-12-18T11:25:34.613Z,102832.15
2022-12-18T11:28:07.852Z,102824.82
2022-12-18T11:30:37.061Z,102830.19
2022-12-18T11:33:08.824Z,102822.47
2022-12-18T11:35:55.192Z,102823.52
2022-12-18T11:38:27.780Z,102828.22
2022-12-18T11:41:02.352Z,102819.36
2022-12-18T11:43:39.524Z,102815.66
2022-12-18T11:46:16.149Z,102817.17
2022-12-18T11:48:54.619Z,102817.14
2022-12-18T11:51:54.504Z,102819.10
2022-12-18T11:54:22.482Z,102807.13
2022-12-18T11:57:12.644Z,102807.13
2022-12-18T11:59:54.922Z,102806.67
2022-12-18T12:02:45.589Z,102807.76
2022-12-18T12:05:42.644Z,102794.61
2022-12-18T12:08:31.574Z,102793.92
2022-12-18T12:11:26.207Z,102788.59
2022-12-18T12:14:06.355Z,102790.72
2022-12-18T12:16:50.304Z,102785.95
2022-12-18T12:19:41.286Z,102784.02
2022-12-18T12:22:12.294Z,102784.18
2022-12-18T12:25:20.509Z,102786.83
2022-12-18T12:28:05.040Z,102795.40
2022-12-18T12:30:32.903Z,102799.05
2022-12-18T12:33:23.639Z,102794.48
2022-12-18T12:36:05.078Z,102787.77
2022-12-18T12:38:39.586Z,102786.05
2022-12-18T12:41:28.752Z,102781.01
2022-12-18T12:43:56.744Z,102769.17
2022-12-18T12:46:25.204Z,102764.43
2022-12-18T12:49:04.507Z,102767.44
2022-12-18T12:51:41.020Z,102755.77
2022-12-18T12:54:16.758Z,102752.73
2022-12-18T12:56:52.633Z,102759.82
2022-12-18T12:59:48.201Z,102763.29
2022-12-18T13:02:28.967Z,102763.29
2022-12-18T13:04:56.927Z,102761.95
2022-12-18T13:07:43.940Z,102748.80
2022-12-18T13:10:39.961Z,102759.37
2022-12-18T13:13:11.609Z,102759.79
2022-12-18T13:15:46.065Z,102756.52
2022-12-18T13:18:24.678Z,102747.66
2022-12-18T13:20:59.788Z,102756.91
2022-12-18T13:23:35.056Z,102747.01
2022-12-18T13:26:12.588Z,102742.30
2022-12-18T13:28:49.751Z,102745.24
2022-12-18T13:31:43.645Z,102751.26
2022-12-18T13:34:26.822Z,102754.95
2022-12-18T13:36:57.068Z,102755.80
2022-12-18T13:39:28.881Z,102765.55
2022-12-18T13:42:06.767Z,102768.98
2022-12-18T13:44:45.629Z,102770.28
2022-12-18T13:47:35.996Z,102768.32
2022-12-18T13:50:05.759Z,102772.70
2022-12-18T13:52:38.278Z,102758.68
2022-12-18T13:55:08.524Z,102750.63
2022-12-18T13:57:43.022Z,102754.98
2022-12-18T14:00:30.752Z,102758.02
2022-12-18T14:02:59.230Z,102765.74
2022-12-18T14:05:28.720Z,102755.60
2022-12-18T14:07:56.821Z,102749.16
2022-12-18T14:13:13.135Z,102766.13
2022-12-18T14:15:43.422Z,102766.75
2022-12-18T14:18:28.566Z,102760.25
2022-12-18T14:21:02.440Z,102763.29
2022-12-18T14:23:43.907Z,102771.30
2022-12-18T14:26:31.123Z,102769.14
2022-12-18T14:28:59.476Z,102771.76
2022-12-18T14:31:28.550Z,102774.17
2022-12-18T14:33:56.538Z,102770.94
2022-12-18T14:36:31.148Z,102765.09
2022-12-18T14:38:59.891Z,102775.84
2022-12-18T14:41:28.009Z,102774.83
2022-12-18T14:43:56.390Z,102774.41
2022-12-18T14:46:38.069Z,102770.97
2022-12-18T14:49:07.140Z,102770.12
2022-12-18T14:51:35.865Z,102783.27
2022-12-18T14:54:10.445Z,102775.29
2022-12-18T14:56:39.615Z,102774.41
2022-12-18T14:59:16.984Z,102780.39
2022-12-18T15:01:56.146Z,102783.49
2022-12-18T15:04:34.215Z,102785.62
2022-12-18T15:07:25.281Z,102782.61
2022-12-18T15:10:03.433Z,102771.40
2022-12-18T15:12:38.152Z,102771.33
2022-12-18T15:15:06.768Z,102773.95
2022-12-18T15:17:34.718Z,102777.15
2022-12-18T15:20:03.941Z,102776.07
2022-12-18T15:22:37.568Z,102784.48
2022-12-18T15:25:06.503Z,102790.33
2022-12-18T15:27:39.884Z,102779.96
2022-12-18T15:30:07.605Z,102771.13
2022-12-18T15:32:35.521Z,102778.69
2022-12-18T15:35:22.177Z,102775.26
2022-12-18T15:37:50.709Z,102776.10
2022-12-18T15:40:20.297Z,102792.29
2022-12-18T15:43:06.613Z,102794.91
2022-12-18T15:45:34.539Z,102785.00
2022-12-18T15:48:02.441Z,102770.74
2022-12-18T15:50:30.432Z,102774.41
2022-12-18T15:52:58.834Z,102777.64
2022-12-18T15:55:45.295Z,102769.24
2022-12-18T15:58:18.164Z,102767.05
2022-12-18T16:00:46.020Z,102768.78
2022-12-18T16:03:14.922Z,102770.09
2022-12-18T16:05:42.959Z,102769.04
2022-12-18T16:08:10.978Z,102770.12
2022-12-18T16:10:38.802Z,102768.78
2022-12-18T16:13:06.716Z,102772.64
2022-12-18T16:15:34.567Z,102765.31
2022-12-18T16:18:02.410Z,102777.18
2022-12-18T16:20:30.300Z,102773.95
2022-12-18T16:22:58.231Z,102781.70
2022-12-18T16:25:27.732Z,102775.84
2022-12-18T16:27:59.476Z,102768.55
2022-12-18T16:30:32.741Z,102771.33
2022-12-18T16:33:05.357Z,102770.05
2022-12-18T16:35:33.276Z,102769.63
2022-12-18T16:38:01.134Z,102772.02
2022-12-18T16:40:28.891Z,102775.68
2022-12-18T16:42:56.692Z,102773.75
2022-12-18T16:45:24.563Z,102774.14
2022-12-18T16:47:52.431Z,102773.95
2022-12-18T16:50:22.140Z,102774.57
2022-12-18T16:52:50.416Z,102766.59
2022-12-18T16:55:18.421Z,102773.95
2022-12-18T16:57:46.327Z,102763.98
2022-12-18T17:00:14.753Z,102762.90
2022-12-18T17:02:42.760Z,102761.81
2022-12-18T17:05:10.850Z,102762.27
2022-12-18T17:07:38.697Z,102768.75
2022-12-18T17:10:06.936Z,102771.76
2022-12-18T17:12:34.658Z,102769.80
2022-12-18T17:15:02.444Z,102762.05
2022-12-18T17:17:30.219Z,102766.33
2022-12-18T17:19:58.001Z,102765.25
2022-12-18T17:22:25.853Z,102751.02
2022-12-18T17:24:53.699Z,102754.03
2022-12-18T17:27:21.690Z,102756.62
2022-12-18T17:29:49.632Z,102752.50
2022-12-18T17:32:18.437Z,102757.47
2022-12-18T17:34:46.532Z,102751.62
2022-12-18T17:37:14.509Z,102753.12
2022-12-18T17:39:43.413Z,102758.52
2022-12-18T17:42:15.282Z,102757.66
2022-12-18T17:44:44.079Z,102758.74
2022-12-18T17:47:13.522Z,102742.76
2022-12-18T17:49:41.603Z,102738.05
2022-12-18T17:52:09.610Z,102746.22
2022-12-18T17:54:40.703Z,102754.63
2022-12-18T17:57:08.891Z,102739.52
2022-12-18T17:59:36.922Z,102731.34
2022-12-18T18:02:05.140Z,102736.94
2022-12-18T18:04:33.173Z,102720.52
2022-12-18T18:07:01.073Z,102724.80
2022-12-18T18:09:29.152Z,102732.59
2022-12-18T18:12:15.667Z,102736.02
2022-12-18T18:14:43.858Z,102725.91
2022-12-18T18:17:12.022Z,102731.93
2022-12-18T18:19:40.088Z,102736.67
2022-12-18T18:22:08.516Z,102731.51
2022-12-18T18:24:36.605Z,102730.63
2022-12-18T18:27:04.544Z,102734.71
2022-12-18T18:29:32.410Z,102731.08
2022-12-18T18:32:00.505Z,102728.86
2022-12-18T18:34:29.769Z,102728.43
2022-12-18T18:36:58.084Z,102722.81
2022-12-18T18:39:26.323Z,102734.41
2022-12-18T18:41:54.220Z,102744.20
2022-12-18T18:44:24.418Z,102730.76
2022-12-18T18:46:57.763Z,102741.38
2022-12-18T18:49:28.414Z,102740.27
2022-12-18T18:51:56.645Z,102737.03
2022-12-18T18:54:25.014Z,102740.92
2022-12-18T18:59:40.905Z,102740.92
2022-12-18T19:02:12.957Z,102737.03
2022-12-18T19:04:46.026Z,102728.59
2022-12-18T19:07:15.090Z,102732.72
2022-12-18T19:09:57.977Z,102736.18
2022-12-18T19:12:49.953Z,102743.73
2022-12-18T19:15:17.837Z,102735.07
2022-12-18T19:17:47.142Z,102729.71
2022-12-18T19:20:16.390Z,102740.92
2022-12-18T19:22:44.355Z,102750.80
2022-12-18T19:25:19.662Z,102736.58
2022-12-18T19:27:47.626Z,102719.28
2022-12-18T19:30:15.467Z,102713.03
2022-12-18T19:32:43.494Z,102707.48
2022-12-18T19:35:12.295Z,102713.33
2022-12-18T19:37:40.542Z,102728.43
2022-12-18T19:40:12.290Z,102738.34
2022-12-18T19:42:40.634Z,102748.90
2022-12-18T19:45:08.859Z,102744.75
2022-12-18T19:47:36.896Z,102734.81
2022-12-18T19:50:04.984Z,102724.64
2022-12-18T19:52:33.134Z,102726.60
2022-12-18T19:55:01.042Z,102718.82
2022-12-18T19:57:29.068Z,102718.56
2022-12-18T19:59:56.885Z,102706.30
2022-12-18T20:02:24.830Z,102712.97
2022-12-18T20:04:52.875Z,102719.67
2022-12-18T20:07:20.788Z,102722.02
2022-12-18T20:09:53.870Z,102704.34
2022-12-18T20:12:30.250Z,102702.18
2022-12-18T20:14:58.661Z,102693.74
2022-12-18T20:17:26.569Z,102700.67
2022-12-18T20:19:55.091Z,102691.16
2022-12-18T20:22:22.995Z,102691.39
2022-12-18T20:24:50.943Z,102698.09
2022-12-18T20:27:19.631Z,102697.70
2022-12-18T20:29:47.665Z,102687.73
2022-12-18T20:32:16.236Z,102692.01
2022-12-18T20:34:44.587Z,102691.55
2022-12-18T20:37:13.415Z,102689.00
2022-12-18T20:39:46.957Z,102676.28
2022-12-18T20:42:15.509Z,102674.98
2022-12-18T20:44:43.454Z,102668.50
2022-12-18T20:47:11.425Z,102684.00
2022-12-18T20:49:39.694Z,102691.32
2022-12-18T20:52:14.006Z,102701.27
2022-12-18T20:54:42.206Z,102694.30
2022-12-18T20:57:10.072Z,102686.74
2022-12-18T20:59:39.936Z,102682.01
2022-12-18T21:02:13.604Z,102683.70
2022-12-18T21:04:41.598Z,102689.95
2022-12-18T21:07:09.770Z,102678.93
2022-12-18T21:09:38.659Z,102672.95
2022-12-18T21:12:28.484Z,102671.45
2022-12-18T21:14:57.563Z,102660.85
2022-12-18T21:17:26.729Z,102669.48
2022-12-18T21:19:56.709Z,102673.63
2022-12-18T21:22:25.295Z,102675.17
2022-12-18T21:24:53.563Z,102672.16
2022-12-18T21:27:21.716Z,102669.74
2022-12-18T21:29:49.747Z,102670.82
2022-12-18T21:32:19.919Z,102666.08
2022-12-18T21:34:48.821Z,102677.91
2022-12-18T21:37:17.199Z,102676.45
2022-12-18T21:39:48.999Z,102673.41
2022-12-18T21:42:36.677Z,102663.04
2022-12-18T21:45:08.462Z,102661.30
2022-12-18T21:47:39.920Z,102664.12
2022-12-18T21:50:08.298Z,102665.82
2022-12-18T21:52:39.749Z,102680.73
2022-12-18T21:55:10.142Z,102677.52
2022-12-18T21:57:40.027Z,102667.78
2022-12-18T22:00:09.628Z,102671.45
2022-12-18T22:02:39.880Z,102666.08
2022-12-18T22:05:08.415Z,102680.11
2022-12-18T22:07:38.733Z,102666.31
2022-12-18T22:10:07.289Z,102667.62
2022-12-18T22:12:44.387Z,102677.52
2022-12-18T22:15:20.286Z,102667.00
2022-12-18T22:17:52.199Z,102667.84
2022-12-18T22:20:28.149Z,102662.45
2022-12-18T22:22:57.747Z,102660.75
2022-12-18T22:25:25.938Z,102649.30
2022-12-18T22:28:18.355Z,102655.78
2022-12-18T22:30:47.063Z,102668.08
2022-12-18T22:33:15.078Z,102667.84
2022-12-18T22:35:43.110Z,102670.01
2022-12-18T22:38:11.305Z,102672.36
2022-12-18T22:40:41.593Z,102652.32
2022-12-18T22:43:09.500Z,102667.84
2022-12-18T22:45:38.821Z,102669.09
2022-12-18T22:48:07.294Z,102659.45
2022-12-18T22:50:35.239Z,102660.46
2022-12-18T22:53:03.183Z,102664.97
2022-12-18T22:55:31.013Z,102654.05
2022-12-18T22:57:58.847Z,102657.48
2022-12-18T23:00:26.876Z,102654.87
2022-12-18T23:03:00.416Z,102648.39
2022-12-18T23:05:32.261Z,102669.09
2022-12-18T23:08:00.631Z,102654.67
2022-12-18T23:10:28.750Z,102657.71
2022-12-18T23:12:56.748Z,102665.88
2022-12-18T23:15:28.342Z,102661.14
2022-12-18T23:17:57.245Z,102649.30
2022-12-18T23:20:25.181Z,102638.48
2022-12-18T23:22:53.025Z,102628.38
2022-12-18T23:25:23.333Z,102626.68
2022-12-18T23:27:51.257Z,102631.00
2022-12-18T23:30:19.123Z,102641.49
2022-12-18T23:32:46.967Z,102643.85
2022-12-18T23:35:15.765Z,102652.52
2022-12-18T23:38:00.175Z,102655.06
2022-12-18T23:40:29.115Z,102645.81
2022-12-18T23:42:57.015Z,102653.36
2022-12-18T23:45:24.917Z,102642.41
2022-12-18T23:47:52.829Z,102649.30
2022-12-18T23:50:20.910Z,102648.03
2022-12-18T23:52:56.533Z,102645.88
2022-12-18T23:55:29.879Z,102649.54
2022-12-18T23:57:57.730Z,102652.58
